Time;durP1;ratioP1;P1;durP2;ratioP2;P2;SDS_P1;SDS_P2;PMS_P1;PMS_P2;Temp;Humidity;BMP_temperature;BMP_pressure;BME280_temperature;BME280_humidity;BME280_pressure;Samples;Min_cycle;Max_cycle;Signal;HPM_P1;HPM_P2
2023/08/19 00:00:22;;;;;;;6.22;4.07;;;;;;;30.45;43.08;96524.81;5084359;28;20020;-30
2023/08/19 00:02:47;;;;;;;7.03;4.63;;;;;;;30.38;42.79;96526.31;5088507;28;20078;-30
2023/08/19 00:05:13;;;;;;;6.28;4.57;;;;;;;30.40;42.74;96525.75;5082700;28;20025;-30
2023/08/19 00:07:38;;;;;;;4.55;4.15;;;;;;;30.27;43.41;96521.81;5085918;28;20027;-30
2023/08/19 00:10:05;;;;;;;6.97;4.30;;;;;;;30.18;43.72;96527.94;5086365;28;20492;-30
2023/08/19 00:12:31;;;;;;;6.68;4.10;;;;;;;30.14;43.82;96527.56;5077724;28;20028;-30
2023/08/19 00:14:57;;;;;;;4.70;4.20;;;;;;;30.39;43.42;96519.41;5081471;28;20023;-30
2023/08/19 00:17:23;;;;;;;5.18;4.38;;;;;;;30.28;43.77;96516.97;5083106;28;20025;-30
2023/08/19 00:19:49;;;;;;;6.85;4.20;;;;;;;30.46;43.09;96515.13;5083227;28;20107;-30
2023/08/19 00:22:15;;;;;;;6.80;4.35;;;;;;;30.36;43.54;96512.13;5082563;28;20112;-31
2023/08/19 00:24:40;;;;;;;6.65;4.65;;;;;;;30.21;43.79;96510.03;5083636;28;20411;-30
2023/08/19 00:27:06;;;;;;;6.13;4.30;;;;;;;30.26;43.74;96511.94;5081513;28;20029;-30
2023/08/19 00:29:31;;;;;;;5.00;4.50;;;;;;;30.28;44.13;96509.31;5082238;28;20021;-30
2023/08/19 00:31:57;;;;;;;4.57;4.18;;;;;;;30.50;43.12;96513.44;5084474;28;20350;-30
2023/08/19 00:34:22;;;;;;;6.10;4.43;;;;;;;30.51;43.19;96514.19;5085798;28;20457;-30
2023/08/19 00:36:48;;;;;;;5.60;4.43;;;;;;;30.48;43.42;96512.50;5084132;28;20052;-30
2023/08/19 00:39:13;;;;;;;4.95;4.40;;;;;;;30.46;43.74;96498.31;5073901;28;20067;-30
2023/08/19 00:41:39;;;;;;;5.40;4.30;;;;;;;30.54;43.25;96501.91;5081726;28;20027;-30
2023/08/19 00:44:05;;;;;;;6.82;4.30;;;;;;;30.49;43.22;96502.81;5076747;28;20020;-30
2023/08/19 00:46:32;;;;;;;5.95;4.50;;;;;;;30.41;44.03;96493.66;5087950;28;20023;-30
2023/08/19 00:48:58;;;;;;;6.88;4.45;;;;;;;30.55;43.74;96492.19;5082077;28;20074;-30
2023/08/19 00:51:24;;;;;;;5.35;4.22;;;;;;;30.52;43.82;96496.84;5081642;28;20104;-30
2023/08/19 00:53:51;;;;;;;6.32;4.43;;;;;;;30.50;43.76;96496.66;5082087;28;20024;-30
2023/08/19 00:56:16;;;;;;;6.22;4.50;;;;;;;30.52;43.82;96498.91;5081921;28;20055;-30
2023/08/19 00:58:42;;;;;;;7.15;5.00;;;;;;;30.47;44.43;96500.56;5081694;28;20093;-30
2023/08/19 01:01:08;;;;;;;5.18;4.10;;;;;;;30.47;44.02;96497.03;5081892;28;20040;-30
2023/08/19 01:03:34;;;;;;;7.10;4.68;;;;;;;30.59;43.61;96489.78;5081800;28;20020;-30
2023/08/19 01:06:17;;;;;;;6.10;5.15;;;;;;;30.46;44.20;96495.53;5080852;28;20024;-30
2023/08/19 01:09:04;;;;;;;5.15;4.57;;;;;;;30.54;43.81;96490.72;5078414;28;20096;-30
2023/08/19 01:11:35;;;;;;;6.07;5.45;;;;;;;30.49;44.34;96497.97;5076711;28;20103;-31
2023/08/19 01:14:11;;;;;;;6.35;5.05;;;;;;;30.45;44.42;96494.03;5084949;28;20031;-30
2023/08/19 01:16:40;;;;;;;6.72;5.30;;;;;;;30.53;44.17;96494.78;5083923;28;20031;-30
2023/08/19 01:19:10;;;;;;;7.70;5.15;;;;;;;30.53;44.58;96498.38;5084754;28;20484;-30
2023/08/19 01:21:37;;;;;;;7.00;5.38;;;;;;;30.55;44.32;96492.19;5083290;28;20050;-30
2023/08/19 01:24:05;;;;;;;7.43;5.80;;;;;;;30.38;44.50;96500.38;5080543;28;20024;-30
2023/08/19 01:26:31;;;;;;;5.75;5.25;;;;;;;30.52;44.76;96491.25;5081226;28;20077;-30
2023/08/19 01:28:56;;;;;;;7.22;5.25;;;;;;;30.36;45.14;96493.28;5081897;28;20472;-30
2023/08/19 01:31:21;;;;;;;7.07;5.45;;;;;;;30.40;44.95;96487.34;5080009;28;20480;-30
2023/08/19 01:33:47;;;;;;;5.88;4.72;;;;;;;30.30;45.52;96484.31;5083705;28;20051;-30
2023/08/19 01:36:38;;;;;;;6.57;4.97;;;;;;;30.56;44.65;96488.84;5081312;28;20027;-30
2023/08/19 01:39:09;;;;;;;8.55;5.43;;;;;;;30.36;45.15;96479.28;5075664;28;20074;-30
2023/08/19 01:41:35;;;;;;;8.38;5.38;;;;;;;30.27;45.39;96479.84;5084309;28;20043;-30
2023/08/19 01:44:02;;;;;;;8.20;5.30;;;;;;;30.27;45.43;96484.69;5089926;28;20024;-30
2023/08/19 01:46:28;;;;;;;5.55;5.05;;;;;;;30.16;45.87;96480.22;5081310;28;20016;-30
2023/08/19 01:48:53;;;;;;;6.05;4.50;;;;;;;30.35;45.19;96482.66;5088152;28;20020;-30
2023/08/19 01:51:19;;;;;;;6.38;4.88;;;;;;;30.43;44.74;96479.84;5081317;28;20027;-30
2023/08/19 01:53:45;;;;;;;6.30;4.93;;;;;;;30.42;45.09;96479.09;5079116;28;20100;-30
2023/08/19 01:56:13;;;;;;;7.10;5.57;;;;;;;30.34;45.13;96476.31;5075387;28;20466;-30
2023/08/19 01:58:39;;;;;;;6.47;4.95;;;;;;;30.48;45.06;96476.13;5081543;28;20420;-30
2023/08/19 02:01:09;;;;;;;6.60;4.68;;;;;;;30.38;44.79;96473.16;5080550;28;20024;-30
2023/08/19 02:03:34;;;;;;;7.63;4.68;;;;;;;30.22;45.13;96472.38;5083431;28;20028;-30
2023/08/19 02:06:00;;;;;;;7.10;5.03;;;;;;;30.38;45.00;96472.41;5083820;28;20540;-30
2023/08/19 02:08:25;;;;;;;8.55;4.45;;;;;;;30.42;44.28;96472.75;5082426;28;20099;-29
2023/08/19 02:10:51;;;;;;;7.65;4.40;;;;;;;30.31;44.78;96474.63;5083789;28;20381;-30
2023/08/19 02:13:16;;;;;;;6.15;4.50;;;;;;;30.40;44.57;96480.97;5083373;28;20465;-30
2023/08/19 02:15:41;;;;;;;5.90;4.85;;;;;;;30.31;44.87;96479.47;5075503;28;20020;-30
2023/08/19 02:18:07;;;;;;;6.72;4.75;;;;;;;30.28;44.24;96478.56;5084633;28;20016;-31
2023/08/19 02:20:32;;;;;;;5.30;4.82;;;;;;;30.24;44.36;96480.22;5088268;28;20035;-31
2023/08/19 02:22:59;;;;;;;5.90;4.40;;;;;;;30.39;43.97;96474.66;5080632;28;20030;-30
2023/08/19 02:25:25;;;;;;;5.15;4.65;;;;;;;30.43;43.73;96479.84;5087483;28;20028;-30
2023/08/19 02:27:50;;;;;;;5.53;4.40;;;;;;;30.27;44.35;96474.25;5080983;28;20610;-30
2023/08/19 02:30:16;;;;;;;7.07;4.53;;;;;;;30.37;44.21;96477.25;5085781;28;20475;-30
2023/08/19 02:32:41;;;;;;;5.90;4.60;;;;;;;30.38;43.87;96472.41;5074849;28;20023;-30
2023/08/19 02:35:07;;;;;;;5.00;4.60;;;;;;;30.36;44.01;96479.28;5076361;28;20423;-30
2023/08/19 02:37:33;;;;;;;5.65;4.60;;;;;;;30.33;44.09;96474.81;5077887;28;20465;-31
2023/08/19 02:39:58;;;;;;;4.85;4.35;;;;;;;30.39;43.83;96479.50;5081751;28;20028;-30
2023/08/19 02:42:24;;;;;;;4.70;4.30;;;;;;;30.52;43.13;96476.50;5078092;28;20474;-30
2023/08/19 02:44:49;;;;;;;7.13;4.63;;;;;;;30.54;43.03;96480.25;5080272;28;20409;-30
2023/08/19 02:47:15;;;;;;;6.47;4.18;;;;;;;30.32;43.58;96484.50;5080658;28;20052;-30
2023/08/19 02:49:40;;;;;;;5.63;4.57;;;;;;;30.25;43.01;96470.53;5078747;28;20024;-30
2023/08/19 02:52:06;;;;;;;4.55;4.13;;;;;;;30.23;42.82;96471.06;5082328;28;20026;-30
2023/08/19 02:54:31;;;;;;;5.90;4.40;;;;;;;30.31;43.15;96474.63;5077111;28;20016;-30
2023/08/19 02:56:57;;;;;;;5.55;4.57;;;;;;;30.40;42.69;96475.38;5076292;28;20384;-30
2023/08/19 02:59:22;;;;;;;6.47;4.68;;;;;;;30.30;43.27;96472.38;5081562;28;20020;-30
2023/08/19 03:01:48;;;;;;;5.43;4.00;;;;;;;30.35;42.96;96477.81;5078184;28;20359;-30
2023/08/19 03:04:14;;;;;;;5.20;4.25;;;;;;;30.13;42.71;96472.19;5079791;28;20381;-30
2023/08/19 03:06:41;;;;;;;5.03;4.35;;;;;;;30.12;43.05;96476.28;5084004;28;20020;-30
2023/08/19 03:09:06;;;;;;;4.38;3.97;;;;;;;30.24;42.90;96475.38;5083676;28;20024;-30
2023/08/19 03:11:33;;;;;;;5.78;4.20;;;;;;;30.23;42.94;96468.28;5085755;28;20477;-30
2023/08/19 03:13:58;;;;;;;6.72;4.40;;;;;;;30.09;43.03;96464.16;5087337;28;20028;-30
2023/08/19 03:16:24;;;;;;;5.10;4.30;;;;;;;30.24;42.20;96471.81;5086129;28;20034;-30
2023/08/19 03:18:49;;;;;;;4.43;4.03;;;;;;;30.22;42.75;96466.78;5083811;28;20016;-30
2023/08/19 03:21:14;;;;;;;4.55;4.15;;;;;;;30.30;42.44;96464.72;5083005;28;20032;-30
2023/08/19 03:23:40;;;;;;;5.90;4.32;;;;;;;30.06;43.04;96465.25;5086228;28;20032;-30
2023/08/19 03:26:05;;;;;;;5.57;4.72;;;;;;;30.02;42.77;96459.31;5086951;28;20023;-30
2023/08/19 03:28:31;;;;;;;6.78;4.30;;;;;;;30.23;42.34;96461.94;5086654;28;20028;-32
2023/08/19 03:30:56;;;;;;;6.15;4.75;;;;;;;30.14;42.49;96463.25;5091035;28;20021;-30
2023/08/19 03:33:21;;;;;;;5.63;5.00;;;;;;;30.32;42.06;96464.19;5076084;28;20021;-30
2023/08/19 03:35:47;;;;;;;5.07;4.57;;;;;;;30.20;42.42;96466.59;5084078;28;20024;-30
2023/08/19 03:38:13;;;;;;;5.32;4.82;;;;;;;30.33;42.03;96466.41;5083603;28;20036;-30
2023/08/19 03:40:39;;;;;;;6.85;4.78;;;;;;;30.26;42.30;96466.41;5076488;28;20073;-30
2023/08/19 03:43:04;;;;;;;5.95;4.82;;;;;;;30.39;42.29;96463.44;5083241;28;22056;-30
2023/08/19 03:45:32;;;;;;;5.47;4.97;;;;;;;30.26;41.92;96472.03;5082989;28;20078;-30
2023/08/19 03:47:58;;;;;;;6.43;5.43;;;;;;;30.21;42.54;96465.28;5083241;28;20409;-31
2023/08/19 03:50:23;;;;;;;6.47;5.25;;;;;;;30.16;42.61;96471.06;5079406;28;20032;-30
2023/08/19 03:52:49;;;;;;;7.35;5.78;;;;;;;30.05;42.54;96469.34;5080145;28;20023;-30
2023/08/19 03:55:14;;;;;;;6.75;5.30;;;;;;;29.95;42.91;96471.19;5083577;28;20020;-30
2023/08/19 03:57:40;;;;;;;7.18;5.32;;;;;;;30.00;42.50;96473.09;5080271;28;20024;-30
2023/08/19 04:00:06;;;;;;;5.80;5.20;;;;;;;30.05;42.50;96468.63;5085650;28;20016;-30
2023/08/19 04:02:32;;;;;;;6.55;5.72;;;;;;;30.21;41.95;96473.69;5078701;28;20465;-30
2023/08/19 04:05:05;;;;;;;5.80;5.18;;;;;;;30.07;42.79;96480.75;5086265;28;20022;-30
2023/08/19 04:07:31;;;;;;;7.47;5.75;;;;;;;30.16;41.99;96480.22;5083104;28;20093;-30
2023/08/19 04:09:57;;;;;;;5.70;5.10;;;;;;;30.04;42.61;96481.88;5081124;28;20493;-30
2023/08/19 04:12:23;;;;;;;7.38;5.53;;;;;;;29.96;42.47;96481.09;5077842;28;20465;-30
2023/08/19 04:14:49;;;;;;;8.43;5.60;;;;;;;30.09;41.75;96480.19;5082761;28;20017;-30
2023/08/19 04:17:15;;;;;;;7.85;5.20;;;;;;;30.34;41.48;96484.69;5088773;28;20362;-30
2023/08/19 04:19:41;;;;;;;9.00;5.10;;;;;;;30.18;41.49;96488.78;5084702;28;20023;-30
2023/08/19 04:22:06;;;;;;;7.80;6.00;;;;;;;30.23;41.35;96490.66;5081092;28;20031;-30
2023/08/19 04:24:36;;;;;;;9.05;5.63;;;;;;;30.22;41.15;96482.81;5082733;28;20024;-30
2023/08/19 04:27:03;;;;;;;5.65;5.07;;;;;;;30.09;40.92;96483.72;5082300;28;20021;-30
2023/08/19 04:29:32;;;;;;;6.07;5.45;;;;;;;30.22;40.69;96499.59;5073877;28;20017;-30
2023/08/19 04:31:58;;;;;;;8.63;5.30;;;;;;;30.12;40.95;96491.00;5082063;28;20017;-30
2023/08/19 04:34:24;;;;;;;7.55;6.43;;;;;;;30.14;40.95;96499.59;5080546;28;20031;-31
2023/08/19 04:36:49;;;;;;;9.00;5.93;;;;;;;30.19;40.68;96509.09;5084109;28;20064;-30
2023/08/19 04:39:15;;;;;;;7.75;5.63;;;;;;;30.11;40.38;96500.72;5078980;28;20127;-30
2023/08/19 04:41:40;;;;;;;5.95;5.45;;;;;;;30.17;40.54;96508.91;5078983;28;20032;-30
2023/08/19 04:44:06;;;;;;;9.85;6.00;;;;;;;30.23;40.36;96507.44;5090063;28;20032;-30
2023/08/19 04:46:31;;;;;;;7.68;5.90;;;;;;;30.35;39.48;96507.84;5082450;28;20031;-30
2023/08/19 04:48:56;;;;;;;8.18;6.43;;;;;;;30.12;40.17;96507.78;5081832;28;20084;-30
2023/08/19 04:51:22;;;;;;;7.53;5.75;;;;;;;30.23;40.14;96513.03;5082079;28;20016;-30
2023/08/19 04:53:48;;;;;;;9.98;5.90;;;;;;;30.21;39.68;96514.88;5073558;28;20420;-30
2023/08/19 04:56:13;;;;;;;6.38;5.40;;;;;;;30.18;39.79;96516.00;5081980;28;20023;-30
2023/08/19 04:58:39;;;;;;;8.07;6.30;;;;;;;30.19;40.02;96512.66;5079213;28;20024;-30
2023/08/19 05:01:04;;;;;;;7.03;6.32;;;;;;;30.23;39.61;96518.63;5077655;28;20017;-30
2023/08/19 05:03:30;;;;;;;8.23;6.10;;;;;;;30.13;40.34;96517.69;5080259;28;20381;-30
2023/08/19 05:05:55;;;;;;;6.40;5.80;;;;;;;30.15;39.95;96514.34;5081794;28;20017;-30
2023/08/19 05:08:21;;;;;;;7.35;6.28;;;;;;;30.18;40.34;96522.34;5082082;28;20028;-30
2023/08/19 05:10:46;;;;;;;7.13;6.35;;;;;;;30.20;39.82;96525.34;5081420;28;20027;-30
2023/08/19 05:13:12;;;;;;;8.23;5.85;;;;;;;30.16;40.48;96522.16;5081018;28;20028;-30
2023/08/19 05:15:38;;;;;;;10.18;6.22;;;;;;;30.30;39.85;96526.28;5076434;28;20028;-30
2023/08/19 05:18:04;;;;;;;6.28;5.78;;;;;;;30.16;40.62;96524.97;5085103;28;20431;-30
2023/08/19 05:20:30;;;;;;;7.55;6.50;;;;;;;30.20;40.37;96519.00;5074621;28;20024;-30
2023/08/19 05:22:55;;;;;;;7.03;5.97;;;;;;;30.20;40.39;96524.59;5084596;28;20065;-30
2023/08/19 05:25:20;;;;;;;6.60;5.93;;;;;;;30.19;40.26;96528.69;5078110;28;20027;-29
2023/08/19 05:27:46;;;;;;;6.57;5.97;;;;;;;30.22;40.60;96524.78;5088667;28;20088;-30
2023/08/19 05:30:11;;;;;;;8.75;5.95;;;;;;;30.05;41.06;96532.94;5080908;28;20021;-30
2023/08/19 05:32:38;;;;;;;10.23;5.90;;;;;;;30.23;40.75;96529.81;5081228;28;20020;-30
2023/08/19 05:35:04;;;;;;;6.97;6.35;;;;;;;30.33;40.36;96533.56;5083945;28;20043;-30
2023/08/19 05:37:29;;;;;;;7.32;6.60;;;;;;;30.19;40.38;96534.28;5084052;28;20485;-30
2023/08/19 05:39:55;;;;;;;7.78;6.40;;;;;;;30.25;40.42;96532.81;5082518;28;20016;-30
2023/08/19 05:42:20;;;;;;;7.70;6.40;;;;;;;30.39;40.56;96530.59;5081289;28;20013;-30
2023/08/19 05:44:46;;;;;;;7.13;6.43;;;;;;;30.37;40.16;96536.00;5080542;28;20044;-30
2023/08/19 05:47:11;;;;;;;7.70;6.93;;;;;;;30.35;40.16;96533.75;5075925;28;20021;-30
2023/08/19 05:49:37;;;;;;;7.53;6.72;;;;;;;30.41;40.50;96541.25;5079060;28;20090;-30
2023/08/19 05:52:02;;;;;;;7.47;5.95;;;;;;;30.42;40.62;96539.91;5080925;28;20389;-30
2023/08/19 05:54:28;;;;;;;9.30;6.32;;;;;;;30.46;40.12;96540.31;5087929;28;20027;-30
2023/08/19 05:56:53;;;;;;;8.32;6.82;;;;;;;30.34;40.38;96537.84;5081247;28;20027;-30
2023/08/19 05:59:19;;;;;;;7.82;6.18;;;;;;;30.49;40.17;96542.00;5080868;28;20035;-30
2023/08/19 06:01:44;;;;;;;7.72;6.13;;;;;;;30.40;40.77;96531.34;5085599;28;20027;-30
2023/08/19 06:04:09;;;;;;;8.60;7.05;;;;;;;30.46;40.17;96532.66;5083878;28;20031;-32
2023/08/19 06:06:36;;;;;;;8.40;6.03;;;;;;;30.48;40.25;96532.84;5081381;28;20020;-30
2023/08/19 06:09:01;;;;;;;7.70;6.63;;;;;;;30.42;40.84;96534.31;5080593;28;20453;-30
2023/08/19 06:11:27;;;;;;;9.00;6.40;;;;;;;30.49;40.33;96533.59;5081004;28;20074;-30
2023/08/19 06:13:52;;;;;;;7.80;7.10;;;;;;;30.41;40.34;96535.66;5078501;28;20096;-30
2023/08/19 06:16:18;;;;;;;10.25;6.25;;;;;;;30.47;40.30;96531.34;5073762;28;20473;-30
2023/08/19 06:18:43;;;;;;;7.13;6.25;;;;;;;30.52;40.41;96530.44;5081075;28;20388;-30
2023/08/19 06:21:09;;;;;;;15.20;6.88;;;;;;;30.38;40.74;96539.56;5078388;28;20024;-30
2023/08/19 06:23:34;;;;;;;9.68;7.10;;;;;;;30.39;40.94;96541.06;5082678;28;20027;-30
2023/08/19 06:26:00;;;;;;;7.47;6.78;;;;;;;30.51;40.44;96542.19;5071678;28;20066;-30
2023/08/19 06:28:25;;;;;;;7.43;6.68;;;;;;;30.54;40.55;96541.81;5079961;28;20024;-30
2023/08/19 06:30:51;;;;;;;7.38;6.65;;;;;;;30.57;40.64;96539.97;5081269;28;20047;-30
2023/08/19 06:33:18;;;;;;;8.60;6.82;;;;;;;30.60;40.41;96536.06;5073196;28;20150;-30
2023/08/19 06:35:49;;;;;;;9.35;7.38;;;;;;;30.63;40.64;96532.91;5080510;28;20039;-30
2023/08/19 06:38:28;;;;;;;11.95;6.65;;;;;;;30.45;41.49;96542.34;5081017;28;20036;-30
2023/08/19 06:40:58;;;;;;;8.20;6.53;;;;;;;30.34;41.23;96542.72;5087335;28;20024;-30
2023/08/19 06:43:27;;;;;;;8.05;6.72;;;;;;;30.59;41.24;96543.72;5073048;28;20111;-30
2023/08/19 06:45:56;;;;;;;8.35;7.53;;;;;;;30.48;41.53;96546.84;5080497;28;20020;-30
2023/08/19 06:48:23;;;;;;;7.82;7.03;;;;;;;30.56;41.39;96538.47;5080509;28;20028;-31
2023/08/19 06:50:52;;;;;;;7.72;6.75;;;;;;;30.59;41.25;96542.97;5087155;28;20381;-30
2023/08/19 06:53:19;;;;;;;11.93;7.57;;;;;;;30.49;41.20;96544.78;5080376;28;20385;-30
2023/08/19 06:56:12;;;;;;;8.15;7.20;;;;;;;30.60;41.17;96541.66;5080588;28;20382;-30
2023/08/19 06:58:43;;;;;;;9.73;6.85;;;;;;;30.73;41.23;96540.72;5080361;28;20044;-30
2023/08/19 07:01:18;;;;;;;11.27;7.00;;;;;;;30.60;41.10;96544.44;5080169;28;20029;-30
2023/08/19 07:03:44;;;;;;;7.60;6.68;;;;;;;30.67;40.83;96550.03;5080451;28;20576;-31
2023/08/19 07:06:15;;;;;;;7.85;6.97;;;;;;;30.66;40.67;96553.44;5080342;28;20028;-30
2023/08/19 07:08:43;;;;;;;8.00;6.85;;;;;;;30.77;41.19;96564.25;5076061;28;20024;-30
2023/08/19 07:11:09;;;;;;;7.72;6.60;;;;;;;30.72;40.28;96556.78;5083041;28;20032;-30
2023/08/19 07:13:35;;;;;;;8.88;6.60;;;;;;;30.60;41.28;96562.00;5079997;28;20403;-31
2023/08/19 07:16:03;;;;;;;10.73;6.60;;;;;;;30.70;40.99;96556.59;5077379;28;20074;-30
2023/08/19 07:18:34;;;;;;;7.47;6.05;;;;;;;30.68;40.33;96557.13;5082221;28;20028;-30
2023/08/19 07:21:00;;;;;;;7.90;6.32;;;;;;;30.77;40.00;96560.72;5087011;28;20024;-30
2023/08/19 07:23:27;;;;;;;8.35;6.15;;;;;;;30.90;39.58;96566.13;5079858;28;20033;-31
2023/08/19 07:25:53;;;;;;;6.63;6.00;;;;;;;30.78;40.36;96565.00;5075607;28;20523;-30
2023/08/19 07:28:22;;;;;;;8.00;5.97;;;;;;;30.84;39.57;96577.50;5082914;28;20032;-30
2023/08/19 07:30:47;;;;;;;10.65;6.10;;;;;;;30.89;39.75;96575.84;5074599;28;20528;-30
2023/08/19 07:33:13;;;;;;;6.63;5.68;;;;;;;30.87;39.63;96582.00;5086426;28;20036;-30
2023/08/19 07:35:38;;;;;;;6.30;5.70;;;;;;;30.91;38.70;96579.53;5079719;28;20028;-30
2023/08/19 07:38:05;;;;;;;6.50;5.50;;;;;;;30.83;38.93;96578.06;5072408;28;20036;-30
2023/08/19 07:40:30;;;;;;;7.45;5.45;;;;;;;30.86;38.79;96586.09;5080310;28;20012;-31
2023/08/19 07:42:56;;;;;;;6.40;5.35;;;;;;;30.93;38.20;96590.94;5087488;28;20016;-30
2023/08/19 07:45:21;;;;;;;5.22;4.63;;;;;;;30.66;38.32;96584.22;5083134;28;20053;-30
2023/08/19 07:47:47;;;;;;;6.00;4.90;;;;;;;30.85;38.62;96584.59;5083054;28;20080;-30
2023/08/19 07:50:12;;;;;;;6.07;5.10;;;;;;;30.91;38.01;96582.34;5080020;28;20039;-30
2023/08/19 07:52:38;;;;;;;9.32;4.65;;;;;;;30.90;38.13;96588.53;5081690;28;20031;-30
2023/08/19 07:55:04;;;;;;;7.20;4.75;;;;;;;30.94;38.02;96577.69;5083241;28;20374;-30
2023/08/19 07:57:29;;;;;;;9.10;5.03;;;;;;;30.97;37.75;96587.78;5083699;28;20028;-30
2023/08/19 07:59:55;;;;;;;6.93;5.20;;;;;;;30.96;37.87;96578.63;5083229;28;20025;-30
2023/08/19 08:02:20;;;;;;;5.00;4.43;;;;;;;30.92;37.83;96578.25;5090687;28;20020;-32
2023/08/19 08:04:46;;;;;;;6.00;4.90;;;;;;;31.02;37.77;96578.44;5083156;28;20019;-30
2023/08/19 08:07:11;;;;;;;6.45;4.65;;;;;;;31.06;37.07;96582.34;5090606;28;20028;-30
2023/08/19 08:09:37;;;;;;;6.28;4.82;;;;;;;30.88;37.56;96582.75;5083175;28;20451;-30
2023/08/19 08:12:04;;;;;;;6.45;4.78;;;;;;;30.96;37.61;96580.66;5088916;28;20031;-30
2023/08/19 08:14:30;;;;;;;4.93;4.10;;;;;;;30.98;37.34;96573.22;5084560;28;20059;-30
2023/08/19 08:16:56;;;;;;;6.43;4.40;;;;;;;30.91;36.93;96579.53;5083321;28;20512;-30
2023/08/19 08:19:25;;;;;;;5.32;4.82;;;;;;;30.90;37.19;96578.06;5082794;28;20024;-31
2023/08/19 08:21:53;;;;;;;8.18;4.22;;;;;;;30.97;36.99;96576.56;5082754;28;20036;-30
2023/08/19 08:24:19;;;;;;;4.85;4.13;;;;;;;30.99;36.97;96573.97;5081045;28;20028;-30
2023/08/19 08:26:45;;;;;;;6.40;4.47;;;;;;;30.91;36.39;96573.94;5076718;28;20051;-30
2023/08/19 08:29:10;;;;;;;5.80;4.18;;;;;;;31.01;36.83;96583.31;5083108;28;20462;-31
2023/08/19 08:31:36;;;;;;;7.05;4.40;;;;;;;31.01;36.49;96580.50;5082211;28;20103;-31
2023/08/19 08:34:01;;;;;;;4.20;3.80;;;;;;;30.96;36.42;96581.41;5085013;28;20016;-30
2023/08/19 08:36:27;;;;;;;4.13;3.67;;;;;;;31.01;36.24;96583.31;5079858;28;20111;-30
2023/08/19 08:38:52;;;;;;;5.28;4.20;;;;;;;30.92;36.82;96580.28;5082806;28;20033;-30
2023/08/19 08:41:18;;;;;;;4.32;3.92;;;;;;;30.94;37.14;96581.22;5078560;28;20051;-30
2023/08/19 08:43:47;;;;;;;5.15;4.28;;;;;;;31.01;36.97;96568.53;5078978;28;20370;-30
2023/08/19 08:46:15;;;;;;;6.20;4.25;;;;;;;31.12;37.11;96581.44;5078021;28;20099;-30
2023/08/19 08:48:43;;;;;;;4.07;3.70;;;;;;;31.17;36.60;96572.09;5079936;28;20021;-31
2023/08/19 08:51:09;;;;;;;10.07;4.55;;;;;;;31.02;36.54;96573.59;5082955;28;20028;-30
2023/08/19 08:53:35;;;;;;;5.15;3.78;;;;;;;31.13;35.80;96568.94;5081078;28;20025;-30
2023/08/19 08:56:03;;;;;;;5.47;3.60;;;;;;;31.06;35.60;96568.34;5089382;28;20062;-31
2023/08/19 08:58:28;;;;;;;4.35;3.85;;;;;;;31.05;35.84;96572.44;5082721;28;20032;-30
2023/08/19 09:00:55;;;;;;;5.18;3.80;;;;;;;31.04;35.57;96570.94;5082060;28;20098;-30
2023/08/19 09:03:24;;;;;;;5.13;3.80;;;;;;;31.15;35.84;96574.72;5082366;28;20421;-30
2023/08/19 09:05:56;;;;;;;4.35;3.33;;;;;;;31.23;35.72;96572.66;5082247;28;20040;-30
2023/08/19 09:08:28;;;;;;;3.72;3.42;;;;;;;31.13;35.38;96572.50;5081744;28;20101;-30
2023/08/19 09:10:57;;;;;;;3.17;2.88;;;;;;;31.12;34.80;96576.59;5082345;28;20082;-30
2023/08/19 09:13:24;;;;;;;4.22;2.95;;;;;;;31.11;35.06;96579.94;5081541;28;20032;-30
2023/08/19 09:15:50;;;;;;;3.35;3.03;;;;;;;31.16;35.16;96579.75;5082529;28;20020;-30
2023/08/19 09:18:17;;;;;;;3.40;2.90;;;;;;;31.16;33.78;96581.81;5082136;28;20103;-30
2023/08/19 09:20:44;;;;;;;2.72;2.50;;;;;;;31.22;33.24;96573.97;5083569;28;20033;-30
2023/08/19 09:23:10;;;;;;;3.08;2.58;;;;;;;31.18;33.34;96579.94;5087039;28;20059;-31
2023/08/19 09:25:37;;;;;;;6.75;3.22;;;;;;;31.19;32.65;96577.88;5088733;28;20048;-30
2023/08/19 09:28:03;;;;;;;4.47;2.40;;;;;;;31.16;32.53;96579.03;5081513;28;20381;-32
2023/08/19 09:30:35;;;;;;;3.20;2.45;;;;;;;31.22;32.08;96585.16;5088391;28;20043;-31
2023/08/19 09:33:01;;;;;;;4.53;2.60;;;;;;;31.23;32.30;96575.47;5083767;28;20420;-30
2023/08/19 09:35:37;;;;;;;6.95;2.45;;;;;;;31.22;31.86;96580.31;5078738;28;20424;-31
2023/08/19 09:38:03;;;;;;;2.72;2.47;;;;;;;31.27;32.00;96573.03;5073355;28;20044;-31
2023/08/19 09:40:30;;;;;;;3.35;2.40;;;;;;;31.32;31.95;96572.81;5081565;28;20085;-30
2023/08/19 09:42:57;;;;;;;4.25;2.33;;;;;;;31.24;32.63;96574.16;5080990;28;20032;-30
2023/08/19 09:45:25;;;;;;;4.15;2.55;;;;;;;31.32;33.27;96572.06;5080582;28;20048;-30
2023/08/19 09:47:53;;;;;;;4.70;2.80;;;;;;;31.34;32.19;96583.47;5081702;28;20358;-31
2023/08/19 09:50:21;;;;;;;6.15;2.65;;;;;;;31.30;31.34;96575.44;5081867;28;20373;-30
2023/08/19 09:52:56;;;;;;;5.05;2.65;;;;;;;31.33;31.70;96577.13;5081678;28;20047;-30
2023/08/19 09:55:30;;;;;;;7.03;2.67;;;;;;;31.45;31.60;96568.31;5083776;28;20016;-32
2023/08/19 09:57:56;;;;;;;4.25;2.72;;;;;;;31.38;31.18;96581.03;5077370;28;20112;-30
2023/08/19 10:00:22;;;;;;;5.50;2.45;;;;;;;31.38;31.65;96576.19;5081089;28;20139;-30
2023/08/19 10:02:48;;;;;;;3.78;2.47;;;;;;;31.42;31.85;96578.59;5078550;28;20448;-30
2023/08/19 10:05:15;;;;;;;5.57;2.42;;;;;;;31.37;32.21;96573.94;5083304;28;20056;-31
2023/08/19 10:07:47;;;;;;;4.78;2.70;;;;;;;31.42;30.98;96564.56;5077095;28;20379;-30
2023/08/19 10:10:13;;;;;;;4.63;2.60;;;;;;;31.53;31.84;96569.78;5083463;28;20020;-30
2023/08/19 10:12:40;;;;;;;5.22;2.45;;;;;;;31.44;31.92;96578.78;5075571;28;20071;-30
2023/08/19 10:15:13;;;;;;;2.88;2.55;;;;;;;31.52;31.42;96571.13;5077452;28;20473;-30
2023/08/19 10:17:41;;;;;;;5.90;2.83;;;;;;;31.56;30.71;96565.09;5082287;28;20487;-31
2023/08/19 10:20:12;;;;;;;9.95;3.00;;;;;;;31.45;31.96;96569.06;5083787;28;20031;-30
2023/08/19 10:22:45;;;;;;;4.05;2.50;;;;;;;31.51;31.27;96566.06;5082138;28;20020;-31
2023/08/19 10:25:13;;;;;;;6.82;3.08;;;;;;;31.56;31.50;96562.31;5085655;28;20020;-30
2023/08/19 10:27:41;;;;;;;4.68;2.80;;;;;;;31.54;31.22;96562.88;5075319;28;20025;-30
2023/08/19 10:30:31;;;;;;;3.58;3.28;;;;;;;31.59;31.60;96553.53;5079972;28;20103;-30
2023/08/19 10:33:19;;;;;;;8.05;3.28;;;;;;;31.57;31.55;96564.56;5080286;28;20034;-30
2023/08/19 10:36:17;;;;;;;5.00;2.90;;;;;;;31.66;31.65;96560.44;5088336;28;20059;-30
2023/08/19 10:38:47;;;;;;;7.20;3.20;;;;;;;31.60;32.45;96549.41;5070678;28;20468;-30
2023/08/19 10:41:25;;;;;;;3.75;2.85;;;;;;;31.63;32.53;96553.88;5083967;28;20089;-30
2023/08/19 10:43:58;;;;;;;5.10;3.10;;;;;;;31.66;32.37;96552.75;5075353;28;20117;-31
2023/08/19 10:46:37;;;;;;;7.13;2.97;;;;;;;31.69;31.68;96560.06;5072706;28;20013;-30
2023/08/19 10:49:27;;;;;;;5.53;3.30;;;;;;;31.70;31.54;96555.94;5087631;28;20038;-30
2023/08/19 10:51:57;;;;;;;5.43;3.00;;;;;;;31.68;31.60;96550.16;5079949;28;20036;-31
2023/08/19 10:54:35;;;;;;;4.90;2.90;;;;;;;31.76;31.74;96545.28;5088045;28;20020;-30
2023/08/19 10:57:27;;;;;;;7.00;3.28;;;;;;;31.74;32.46;96556.31;5073101;28;20039;-30
2023/08/19 11:00:00;;;;;;;3.90;2.95;;;;;;;31.75;31.70;96551.44;5078676;28;20492;-30
2023/08/19 11:02:27;;;;;;;4.82;3.00;;;;;;;31.72;32.08;96547.72;5073329;28;20020;-30
2023/08/19 11:04:53;;;;;;;3.40;2.95;;;;;;;31.78;31.51;96553.84;5080065;28;20013;-30
2023/08/19 11:07:20;;;;;;;3.30;2.72;;;;;;;31.78;31.23;96553.84;5073114;28;20036;-30
2023/08/19 11:09:47;;;;;;;3.97;3.10;;;;;;;31.82;31.09;96544.31;5083892;28;20485;-30
2023/08/19 11:12:19;;;;;;;3.20;2.90;;;;;;;31.80;31.07;96546.94;5076647;28;20029;-30
2023/08/19 11:14:49;;;;;;;4.80;2.57;;;;;;;31.91;31.10;96554.91;5079736;28;20100;-31
2023/08/19 11:17:16;;;;;;;3.67;2.97;;;;;;;31.89;30.33;96543.53;5086953;28;20024;-31
2023/08/19 11:19:42;;;;;;;3.75;3.08;;;;;;;31.88;31.04;96547.66;5072860;28;20029;-31
2023/08/19 11:22:14;;;;;;;4.75;3.42;;;;;;;31.95;29.83;96541.25;5080027;28;20104;-31
2023/08/19 11:24:40;;;;;;;;;;;;;;;31.93;30.22;96541.81;5079669;28;20056;-32
2023/08/19 11:27:07;;;;;;;6.95;3.20;;;;;;;31.95;30.27;96546.88;5080604;28;19940;-31
2023/08/19 11:29:32;;;;;;;3.88;2.75;;;;;;;31.89;30.67;96544.28;5083844;28;20024;-31
2023/08/19 11:32:00;;;;;;;5.32;2.80;;;;;;;31.91;30.59;96540.88;5083446;28;20116;-31
2023/08/19 11:34:30;;;;;;;8.60;3.03;;;;;;;32.04;29.45;96535.03;5083072;28;20055;-31